Cocos Keeling Island Airport
YPCC : now visible

Airfield :











YOU CAN JOIN US ON...

 
LOGIN :

Register | Disclaimer

   EN    FR    IT 

 









Legend :    VFR   Marginal VFR   IFR   Intensive IFR   Very Intensive IFR
Visi :
Ceiling :
>= 8 km
>= 3000ft
5 to 8 km
1000 to 3000 ft
1500m to 5 km
500 to 1000 ft
800 to 1500m
200 to 500 ft
< 800m
< 200 ft
Symbols :   Thunderstorms  Fog  Heavy snow  Heavy precipitations  Wind > 20 kt






- Airport Elevation : 10 ft
- IATA code : CCK


YPCC - Cocos Keeling Island

CURRENT METAR :
  • 121800Z AUTO 13014KT 9999 // SCT023 26/21 Q1013

EXPIRED METARs :
  • 121730Z AUTO 13013KT 9999 // SCT023 26/22 Q1013 RF00.0/000.0
  • 121700Z AUTO 13013KT 9999 // SCT021 BKN033 26/22 Q1013
  • 121630Z AUTO 13013KT 9999 // SCT023 26/22 Q1014 RF00.0/000.0
  • 121600Z AUTO 13015KT 9999 // SCT021 27/22 Q1014
  • 121530Z AUTO 13013KT 9999 // SCT021 27/22 Q1013 RF00.0/000.0

TAF TAF YPCC
Valid from the 12 at 18:00 until the 13 at 18:00 UTC


121720Z 1218/1318 13012KT 9999 SCT025



MET'MAP, your aeronautical weather chart ! - Copyright ORBIFLY December 2007 - Disclaimer

ORBIFLY MET'MAP TEAM :

Programming & Development : Alexandra Zaïnal
Concept & original design : Baudouin d'Aumeries
Assistance for programming : Marc-Olivier Méhu
Technical & hardware support : Manuel Goepfert

Contact : metmap@orbifly.com




SOURCES & CREDITS :

   NOAA       Earth
Advisory